Terminal Aerodrome Forecast
Issued by NWS

Home | Current Version | Previous Version | Text Only | Print | Product List | Glossary On
Versions: 1 2 3 4 5 6 7 8 9 10 11 12 13 14 15 16 17 18 19 20 21 22 23 24
000
FTUS44 KBMX 311801 CCA
TAFANB
TAF COR
KANB 311801Z 3118/0118 06004KT P6SM SCT025 BKN035
     FM311900 06004KT P6SM SCT040
     FM010200 00000KT P6SM SCT250=

USA.gov is the U.S. government's official web portal to all federal, state and local government web resources and services.